sensor_id;sensor_type;location;lat;lon;timestamp;pressure;altitude;pressure_sealevel;temperature;humidity
12991;BME280;6560;57.692;11.958;2023-07-24T00:02:24;99698.09;;;33.45;79.17
12991;BME280;6560;57.692;11.958;2023-07-24T00:04:50;99694.47;;;33.96;80.55
12991;BME280;6560;57.692;11.958;2023-07-24T00:07:15;99684.41;;;33.96;76.00
12991;BME280;6560;57.692;11.958;2023-07-24T00:09:43;99689.47;;;33.31;80.93
12991;BME280;6560;57.692;11.958;2023-07-24T00:12:10;99663.84;;;33.07;83.81
12991;BME280;6560;57.692;11.958;2023-07-24T00:14:36;99661.25;;;34.07;77.62
12991;BME280;6560;57.692;11.958;2023-07-24T00:17:02;99679.16;;;33.66;79.20
12991;BME280;6560;57.692;11.958;2023-07-24T00:19:29;99683.59;;;33.15;81.13
12991;BME280;6560;57.692;11.958;2023-07-24T00:21:56;99661.53;;;33.48;79.71
12991;BME280;6560;57.692;11.958;2023-07-24T00:24:22;99665.69;;;33.86;79.03
12991;BME280;6560;57.692;11.958;2023-07-24T00:26:49;99665.50;;;34.38;77.63
12991;BME280;6560;57.692;11.958;2023-07-24T00:29:14;99618.25;;;36.61;73.30
12991;BME280;6560;57.692;11.958;2023-07-24T00:31:40;99650.13;;;34.81;75.32
12991;BME280;6560;57.692;11.958;2023-07-24T00:34:05;99634.31;;;35.51;72.94
12991;BME280;6560;57.692;11.958;2023-07-24T00:36:31;99625.66;;;36.59;71.04
12991;BME280;6560;57.692;11.958;2023-07-24T00:38:56;99636.22;;;35.29;73.01
12991;BME280;6560;57.692;11.958;2023-07-24T00:41:22;99599.03;;;35.44;71.95
12991;BME280;6560;57.692;11.958;2023-07-24T00:43:47;99616.50;;;35.19;71.78
12991;BME280;6560;57.692;11.958;2023-07-24T00:46:14;99601.53;;;34.63;74.23
12991;BME280;6560;57.692;11.958;2023-07-24T00:48:40;99614.19;;;33.97;77.69
12991;BME280;6560;57.692;11.958;2023-07-24T00:51:06;99590.31;;;34.25;75.09
12991;BME280;6560;57.692;11.958;2023-07-24T00:53:33;99601.31;;;34.91;74.43
12991;BME280;6560;57.692;11.958;2023-07-24T00:55:58;99603.56;;;36.04;69.36
12991;BME280;6560;57.692;11.958;2023-07-24T00:58:24;99595.88;;;35.73;67.73
12991;BME280;6560;57.692;11.958;2023-07-24T01:00:51;99597.47;;;36.18;67.15
12991;BME280;6560;57.692;11.958;2023-07-24T01:03:17;99578.22;;;36.37;65.19
12991;BME280;6560;57.692;11.958;2023-07-24T01:05:42;99589.31;;;36.54;64.98
12991;BME280;6560;57.692;11.958;2023-07-24T01:08:08;99563.63;;;35.58;65.92
12991;BME280;6560;57.692;11.958;2023-07-24T01:10:33;99581.44;;;36.27;67.66
12991;BME280;6560;57.692;11.958;2023-07-24T01:13:08;99571.28;;;37.72;63.27
12991;BME280;6560;57.692;11.958;2023-07-24T01:15:39;99567.69;;;35.90;90.28
12991;BME280;6560;57.692;11.958;2023-07-24T01:18:11;99557.78;;;38.64;100.00
12991;BME280;6560;57.692;11.958;2023-07-24T01:20:51;99545.16;;;37.63;99.00
12991;BME280;6560;57.692;11.958;2023-07-24T01:25:58;99564.34;;;36.02;97.06
12991;BME280;6560;57.692;11.958;2023-07-24T01:28:28;99563.31;;;38.16;100.00
12991;BME280;6560;57.692;11.958;2023-07-24T01:30:54;99579.34;;;36.14;100.00
12991;BME280;6560;57.692;11.958;2023-07-24T01:33:22;99561.91;;;35.15;100.00
12991;BME280;6560;57.692;11.958;2023-07-24T01:35:54;99517.06;;;54.91;100.00
12991;BME280;6560;57.692;11.958;2023-07-24T01:38:21;99524.66;;;35.31;100.00
12991;BME280;6560;57.692;11.958;2023-07-24T01:40:47;99505.84;;;39.32;100.00
12991;BME280;6560;57.692;11.958;2023-07-24T01:43:14;99500.50;;;39.59;100.00
12991;BME280;6560;57.692;11.958;2023-07-24T01:45:40;99489.81;;;42.20;84.54
12991;BME280;6560;57.692;11.958;2023-07-24T01:48:06;99485.22;;;41.57;73.15
12991;BME280;6560;57.692;11.958;2023-07-24T01:50:33;99495.72;;;37.62;100.00
12991;BME280;6560;57.692;11.958;2023-07-24T01:52:58;99509.06;;;36.47;100.00
12991;BME280;6560;57.692;11.958;2023-07-24T01:55:24;99497.78;;;37.06;100.00
12991;BME280;6560;57.692;11.958;2023-07-24T01:57:50;99476.28;;;36.07;100.00
12991;BME280;6560;57.692;11.958;2023-07-24T02:00:15;99488.28;;;35.28;100.00
12991;BME280;6560;57.692;11.958;2023-07-24T02:02:41;99472.78;;;35.27;100.00
12991;BME280;6560;57.692;11.958;2023-07-24T02:05:08;99465.84;;;34.34;100.00
12991;BME280;6560;57.692;11.958;2023-07-24T02:07:35;99484.25;;;34.74;100.00
12991;BME280;6560;57.692;11.958;2023-07-24T02:10:02;99507.72;;;32.68;100.00
12991;BME280;6560;57.692;11.958;2023-07-24T02:12:29;99481.88;;;33.76;100.00
12991;BME280;6560;57.692;11.958;2023-07-24T02:14:54;99474.28;;;34.29;100.00
12991;BME280;6560;57.692;11.958;2023-07-24T02:17:23;99485.88;;;33.43;100.00
12991;BME280;6560;57.692;11.958;2023-07-24T02:19:48;99485.56;;;34.20;100.00
12991;BME280;6560;57.692;11.958;2023-07-24T02:22:16;99462.34;;;34.94;100.00
12991;BME280;6560;57.692;11.958;2023-07-24T02:24:43;99467.91;;;34.29;100.00
12991;BME280;6560;57.692;11.958;2023-07-24T02:27:12;99464.09;;;34.33;100.00
12991;BME280;6560;57.692;11.958;2023-07-24T02:29:37;99462.31;;;34.32;100.00
12991;BME280;6560;57.692;11.958;2023-07-24T02:32:03;99464.78;;;33.23;100.00
12991;BME280;6560;57.692;11.958;2023-07-24T02:34:29;99469.06;;;34.45;100.00
12991;BME280;6560;57.692;11.958;2023-07-24T02:36:58;99471.09;;;33.48;100.00
12991;BME280;6560;57.692;11.958;2023-07-24T02:39:26;99468.56;;;32.94;100.00
12991;BME280;6560;57.692;11.958;2023-07-24T02:41:51;99473.72;;;33.02;100.00
12991;BME280;6560;57.692;11.958;2023-07-24T02:44:17;99476.78;;;30.90;100.00
12991;BME280;6560;57.692;11.958;2023-07-24T02:46:43;99463.63;;;31.38;100.00
12991;BME280;6560;57.692;11.958;2023-07-24T02:49:09;99467.25;;;31.39;100.00
12991;BME280;6560;57.692;11.958;2023-07-24T02:51:36;99461.66;;;32.30;100.00
12991;BME280;6560;57.692;11.958;2023-07-24T02:54:01;99461.09;;;32.74;100.00
12991;BME280;6560;57.692;11.958;2023-07-24T02:56:27;99464.44;;;33.55;100.00
12991;BME280;6560;57.692;11.958;2023-07-24T02:58:52;99450.63;;;32.61;100.00
12991;BME280;6560;57.692;11.958;2023-07-24T03:01:18;99447.81;;;32.89;100.00
12991;BME280;6560;57.692;11.958;2023-07-24T03:03:43;99452.81;;;32.23;100.00
12991;BME280;6560;57.692;11.958;2023-07-24T03:06:09;99439.75;;;32.86;100.00
12991;BME280;6560;57.692;11.958;2023-07-24T03:08:36;99446.75;;;33.66;100.00
12991;BME280;6560;57.692;11.958;2023-07-24T03:11:05;99431.22;;;33.66;100.00
12991;BME280;6560;57.692;11.958;2023-07-24T03:13:31;99440.44;;;33.15;100.00
12991;BME280;6560;57.692;11.958;2023-07-24T03:15:58;99452.34;;;31.21;100.00
12991;BME280;6560;57.692;11.958;2023-07-24T03:18:24;99439.97;;;31.40;100.00
12991;BME280;6560;57.692;11.958;2023-07-24T03:20:49;99440.41;;;32.66;100.00
12991;BME280;6560;57.692;11.958;2023-07-24T03:23:15;99439.09;;;33.52;100.00
12991;BME280;6560;57.692;11.958;2023-07-24T03:25:41;99436.88;;;34.72;100.00
12991;BME280;6560;57.692;11.958;2023-07-24T03:28:09;99440.13;;;33.25;100.00
12991;BME280;6560;57.692;11.958;2023-07-24T03:30:35;99436.94;;;33.12;100.00
12991;BME280;6560;57.692;11.958;2023-07-24T03:33:01;99431.78;;;32.53;100.00
12991;BME280;6560;57.692;11.958;2023-07-24T03:35:27;99438.16;;;31.98;100.00
12991;BME280;6560;57.692;11.958;2023-07-24T03:37:52;99432.38;;;33.60;100.00
12991;BME280;6560;57.692;11.958;2023-07-24T03:40:19;99423.78;;;34.36;100.00
12991;BME280;6560;57.692;11.958;2023-07-24T03:42:44;99435.25;;;34.46;100.00
12991;BME280;6560;57.692;11.958;2023-07-24T03:45:10;99433.56;;;34.64;100.00
12991;BME280;6560;57.692;11.958;2023-07-24T03:47:35;99426.94;;;34.48;100.00
12991;BME280;6560;57.692;11.958;2023-07-24T03:50:02;99420.44;;;33.61;100.00
12991;BME280;6560;57.692;11.958;2023-07-24T03:52:28;99421.91;;;33.72;100.00
12991;BME280;6560;57.692;11.958;2023-07-24T03:54:55;99407.56;;;34.10;100.00
12991;BME280;6560;57.692;11.958;2023-07-24T03:57:20;99420.22;;;33.68;100.00
12991;BME280;6560;57.692;11.958;2023-07-24T03:59:46;99420.94;;;34.39;100.00
12991;BME280;6560;57.692;11.958;2023-07-24T04:02:11;99417.00;;;34.25;100.00
12991;BME280;6560;57.692;11.958;2023-07-24T04:04:37;99408.19;;;33.73;100.00
12991;BME280;6560;57.692;11.958;2023-07-24T04:07:03;99405.34;;;33.53;100.00
12991;BME280;6560;57.692;11.958;2023-07-24T04:09:29;99412.63;;;34.41;100.00
12991;BME280;6560;57.692;11.958;2023-07-24T04:11:55;99401.63;;;34.85;100.00
12991;BME280;6560;57.692;11.958;2023-07-24T04:14:20;99401.16;;;35.14;100.00
12991;BME280;6560;57.692;11.958;2023-07-24T04:16:46;99408.00;;;34.85;100.00
12991;BME280;6560;57.692;11.958;2023-07-24T04:19:11;99405.28;;;34.21;100.00
12991;BME280;6560;57.692;11.958;2023-07-24T04:21:37;99406.81;;;34.07;100.00
12991;BME280;6560;57.692;11.958;2023-07-24T04:24:02;99407.72;;;33.39;100.00
12991;BME280;6560;57.692;11.958;2023-07-24T04:26:29;99391.47;;;33.57;100.00
12991;BME280;6560;57.692;11.958;2023-07-24T04:28:54;99393.63;;;33.94;100.00
12991;BME280;6560;57.692;11.958;2023-07-24T04:31:20;99392.38;;;34.25;100.00
12991;BME280;6560;57.692;11.958;2023-07-24T04:33:45;99389.06;;;34.38;100.00
12991;BME280;6560;57.692;11.958;2023-07-24T04:36:11;99385.34;;;34.18;100.00
12991;BME280;6560;57.692;11.958;2023-07-24T04:38:36;99381.56;;;34.42;100.00
12991;BME280;6560;57.692;11.958;2023-07-24T04:41:03;99384.06;;;34.89;100.00
12991;BME280;6560;57.692;11.958;2023-07-24T04:43:29;99377.41;;;34.94;100.00
12991;BME280;6560;57.692;11.958;2023-07-24T04:45:54;99374.69;;;35.52;100.00
12991;BME280;6560;57.692;11.958;2023-07-24T04:48:20;99349.59;;;35.61;100.00
12991;BME280;6560;57.692;11.958;2023-07-24T04:50:45;99360.41;;;35.64;100.00
12991;BME280;6560;57.692;11.958;2023-07-24T04:53:12;99361.03;;;35.71;100.00
12991;BME280;6560;57.692;11.958;2023-07-24T04:55:39;99363.78;;;36.07;100.00
12991;BME280;6560;57.692;11.958;2023-07-24T04:58:05;99361.31;;;35.83;100.00
12991;BME280;6560;57.692;11.958;2023-07-24T05:00:30;99356.09;;;35.40;100.00
12991;BME280;6560;57.692;11.958;2023-07-24T05:02:56;99368.94;;;33.74;100.00
12991;BME280;6560;57.692;11.958;2023-07-24T05:05:22;99359.72;;;33.98;100.00
12991;BME280;6560;57.692;11.958;2023-07-24T05:07:48;99344.06;;;33.35;100.00
12991;BME280;6560;57.692;11.958;2023-07-24T05:10:13;99348.00;;;34.17;100.00
12991;BME280;6560;57.692;11.958;2023-07-24T05:12:41;99322.84;;;34.90;100.00
12991;BME280;6560;57.692;11.958;2023-07-24T05:15:27;99351.47;;;34.62;100.00
12991;BME280;6560;57.692;11.958;2023-07-24T05:17:52;99345.66;;;34.90;100.00
12991;BME280;6560;57.692;11.958;2023-07-24T05:20:18;99349.72;;;33.54;100.00
12991;BME280;6560;57.692;11.958;2023-07-24T05:22:44;99324.53;;;34.11;100.00
12991;BME280;6560;57.692;11.958;2023-07-24T05:25:10;99346.94;;;34.41;100.00
12991;BME280;6560;57.692;11.958;2023-07-24T05:27:35;99343.41;;;34.79;100.00
12991;BME280;6560;57.692;11.958;2023-07-24T05:30:01;99336.13;;;35.38;100.00
12991;BME280;6560;57.692;11.958;2023-07-24T05:32:27;99304.72;;;35.06;100.00
12991;BME280;6560;57.692;11.958;2023-07-24T05:34:52;99341.59;;;35.38;100.00
12991;BME280;6560;57.692;11.958;2023-07-24T05:37:18;99337.53;;;35.07;100.00
12991;BME280;6560;57.692;11.958;2023-07-24T05:39:43;99331.06;;;34.90;100.00
12991;BME280;6560;57.692;11.958;2023-07-24T05:42:09;99334.22;;;35.19;100.00
12991;BME280;6560;57.692;11.958;2023-07-24T05:44:35;99337.78;;;34.62;100.00
12991;BME280;6560;57.692;11.958;2023-07-24T05:47:02;99327.88;;;34.99;100.00
12991;BME280;6560;57.692;11.958;2023-07-24T05:49:28;99330.84;;;35.33;100.00
12991;BME280;6560;57.692;11.958;2023-07-24T05:51:54;99271.25;;;34.99;100.00
12991;BME280;6560;57.692;11.958;2023-07-24T05:54:19;99293.81;;;42.92;100.00
12991;BME280;6560;57.692;11.958;2023-07-24T05:56:46;99308.16;;;41.43;100.00
12991;BME280;6560;57.692;11.958;2023-07-24T05:59:12;99329.44;;;35.81;100.00
12991;BME280;6560;57.692;11.958;2023-07-24T06:01:38;99328.31;;;33.87;100.00
12991;BME280;6560;57.692;11.958;2023-07-24T06:04:03;99322.53;;;33.49;100.00
12991;BME280;6560;57.692;11.958;2023-07-24T06:06:30;99317.91;;;33.95;100.00
12991;BME280;6560;57.692;11.958;2023-07-24T06:08:56;99316.38;;;34.10;100.00
12991;BME280;6560;57.692;11.958;2023-07-24T06:11:23;99317.94;;;34.37;100.00
12991;BME280;6560;57.692;11.958;2023-07-24T06:13:48;99320.34;;;34.45;100.00
12991;BME280;6560;57.692;11.958;2023-07-24T06:16:14;99314.38;;;34.35;100.00
12991;BME280;6560;57.692;11.958;2023-07-24T06:18:41;99308.09;;;34.33;100.00
12991;BME280;6560;57.692;11.958;2023-07-24T06:21:08;99306.38;;;34.51;100.00
12991;BME280;6560;57.692;11.958;2023-07-24T06:23:35;99312.19;;;34.84;100.00
12991;BME280;6560;57.692;11.958;2023-07-24T06:26:02;99310.00;;;33.22;100.00
12991;BME280;6560;57.692;11.958;2023-07-24T06:28:28;99289.19;;;33.18;100.00
12991;BME280;6560;57.692;11.958;2023-07-24T06:30:54;99297.63;;;33.35;100.00
12991;BME280;6560;57.692;11.958;2023-07-24T06:33:20;99308.50;;;34.24;100.00
12991;BME280;6560;57.692;11.958;2023-07-24T06:35:50;99303.72;;;34.07;100.00
12991;BME280;6560;57.692;11.958;2023-07-24T06:38:16;99290.25;;;35.96;100.00
12991;BME280;6560;57.692;11.958;2023-07-24T06:40:42;99301.88;;;35.46;100.00
12991;BME280;6560;57.692;11.958;2023-07-24T06:43:07;99308.31;;;35.27;100.00
12991;BME280;6560;57.692;11.958;2023-07-24T06:45:33;99290.69;;;36.90;100.00
12991;BME280;6560;57.692;11.958;2023-07-24T06:47:58;99294.16;;;35.73;100.00
12991;BME280;6560;57.692;11.958;2023-07-24T06:50:24;99258.06;;;35.07;100.00
12991;BME280;6560;57.692;11.958;2023-07-24T06:52:50;99285.34;;;36.20;100.00
12991;BME280;6560;57.692;11.958;2023-07-24T06:55:17;99262.59;;;36.85;100.00
12991;BME280;6560;57.692;11.958;2023-07-24T06:57:43;99275.91;;;37.41;100.00
12991;BME280;6560;57.692;11.958;2023-07-24T07:00:09;99268.09;;;37.34;100.00
12991;BME280;6560;57.692;11.958;2023-07-24T07:02:37;99271.81;;;36.17;100.00
12991;BME280;6560;57.692;11.958;2023-07-24T07:05:03;99273.59;;;35.99;100.00
12991;BME280;6560;57.692;11.958;2023-07-24T07:07:29;99250.19;;;35.75;100.00
12991;BME280;6560;57.692;11.958;2023-07-24T07:09:55;99268.72;;;36.40;100.00
12991;BME280;6560;57.692;11.958;2023-07-24T07:12:22;99266.34;;;36.50;100.00
12991;BME280;6560;57.692;11.958;2023-07-24T07:14:47;99269.59;;;36.41;100.00
12991;BME280;6560;57.692;11.958;2023-07-24T07:17:13;99257.78;;;35.70;100.00
12991;BME280;6560;57.692;11.958;2023-07-24T07:19:38;99260.13;;;36.12;100.00
12991;BME280;6560;57.692;11.958;2023-07-24T07:22:08;99262.94;;;37.12;100.00
12991;BME280;6560;57.692;11.958;2023-07-24T07:24:34;99248.91;;;37.32;100.00
12991;BME280;6560;57.692;11.958;2023-07-24T07:26:59;99258.63;;;36.41;100.00
12991;BME280;6560;57.692;11.958;2023-07-24T07:29:25;99250.97;;;36.80;100.00
12991;BME280;6560;57.692;11.958;2023-07-24T07:31:50;99243.78;;;37.58;100.00
12991;BME280;6560;57.692;11.958;2023-07-24T07:34:16;99243.94;;;37.55;100.00
12991;BME280;6560;57.692;11.958;2023-07-24T07:36:41;99243.25;;;36.54;100.00
12991;BME280;6560;57.692;11.958;2023-07-24T07:39:07;99260.22;;;35.93;100.00
12991;BME280;6560;57.692;11.958;2023-07-24T07:41:32;99250.44;;;36.89;100.00
12991;BME280;6560;57.692;11.958;2023-07-24T07:43:58;99230.22;;;36.90;100.00
12991;BME280;6560;57.692;11.958;2023-07-24T07:46:24;99250.19;;;36.44;100.00
12991;BME280;6560;57.692;11.958;2023-07-24T07:48:51;99238.19;;;35.77;100.00
12991;BME280;6560;57.692;11.958;2023-07-24T07:51:16;99230.13;;;35.55;100.00
12991;BME280;6560;57.692;11.958;2023-07-24T07:53:43;99252.50;;;35.46;100.00
12991;BME280;6560;57.692;11.958;2023-07-24T07:56:08;99239.66;;;35.11;100.00
12991;BME280;6560;57.692;11.958;2023-07-24T07:58:34;99256.69;;;35.17;100.00
12991;BME280;6560;57.692;11.958;2023-07-24T08:01:04;99240.34;;;35.71;100.00
12991;BME280;6560;57.692;11.958;2023-07-24T08:03:30;99224.72;;;36.24;100.00
12991;BME280;6560;57.692;11.958;2023-07-24T08:05:59;99234.28;;;36.50;100.00
12991;BME280;6560;57.692;11.958;2023-07-24T08:08:25;99229.09;;;37.10;100.00
12991;BME280;6560;57.692;11.958;2023-07-24T08:10:50;99232.78;;;35.57;100.00
12991;BME280;6560;57.692;11.958;2023-07-24T08:13:15;99236.59;;;34.79;100.00
12991;BME280;6560;57.692;11.958;2023-07-24T08:15:41;99250.69;;;33.68;100.00
12991;BME280;6560;57.692;11.958;2023-07-24T08:18:06;99253.09;;;34.39;100.00
12991;BME280;6560;57.692;11.958;2023-07-24T08:20:37;99238.53;;;34.96;100.00
12991;BME280;6560;57.692;11.958;2023-07-24T08:23:06;99232.38;;;35.10;100.00
12991;BME280;6560;57.692;11.958;2023-07-24T08:25:31;99243.59;;;33.85;100.00
12991;BME280;6560;57.692;11.958;2023-07-24T08:27:57;99223.34;;;33.89;100.00
12991;BME280;6560;57.692;11.958;2023-07-24T08:30:22;99244.13;;;34.14;100.00
12991;BME280;6560;57.692;11.958;2023-07-24T08:32:48;99242.31;;;34.94;100.00
